createdAt,value
2019-02-14T00:03:45.658Z,90.42
2019-02-14T00:08:48.538Z,90.39
2019-02-14T00:13:52.570Z,90.05
2019-02-14T00:18:55.805Z,90.29
2019-02-14T00:23:59.294Z,89.12
2019-02-14T00:29:02.790Z,89.67
2019-02-14T00:34:05.733Z,89.91
2019-02-14T00:39:08.302Z,89.17
2019-02-14T00:44:11.834Z,89.11
2019-02-14T00:49:15.351Z,89.40
2019-02-14T00:54:18.256Z,88.25
2019-02-14T00:59:21.435Z,88.98
2019-02-14T01:04:24.601Z,89.09
2019-02-14T01:09:28.166Z,88.26
2019-02-14T01:14:31.532Z,89.14
2019-02-14T01:19:34.440Z,88.73
2019-02-14T01:24:37.094Z,88.63
2019-02-14T01:29:39.679Z,89.11
2019-02-14T01:34:43.215Z,89.43
2019-02-14T01:39:46.088Z,89.32
2019-02-14T01:44:48.942Z,88.87
2019-02-14T01:49:52.700Z,88.58
2019-02-14T01:54:56.275Z,88.96
2019-02-14T01:59:59.604Z,88.79
2019-02-14T02:05:02.921Z,89.24
2019-02-14T02:10:08.830Z,89.96
2019-02-14T02:15:15.150Z,89.71
2019-02-14T02:20:17.997Z,89.79
2019-02-14T02:25:21.076Z,89.47
2019-02-14T02:30:24.957Z,89.02
2019-02-14T02:35:29.378Z,88.59
2019-02-14T02:40:32.931Z,89.33
2019-02-14T02:45:36.062Z,88.58
2019-02-14T02:50:39.577Z,88.78
2019-02-14T02:55:42.735Z,89.33
2019-02-14T03:00:46.340Z,89.82
2019-02-14T03:05:48.853Z,88.49
2019-02-14T03:10:54.067Z,88.63
2019-02-14T03:15:57.269Z,89.42
2019-02-14T03:21:01.334Z,89.07
2019-02-14T03:26:04.529Z,89.11
2019-02-14T03:31:07.843Z,89.90
2019-02-14T03:36:18.628Z,89.72
2019-02-14T03:41:16.141Z,89.86
2019-02-14T03:46:19.372Z,89.90
2019-02-14T03:51:22.320Z,89.24
2019-02-14T03:56:25.552Z,89.21
2019-02-14T04:01:28.005Z,88.64
2019-02-14T04:06:30.882Z,88.97
2019-02-14T04:11:33.753Z,88.96
2019-02-14T04:16:37.406Z,89.98
2019-02-14T04:21:40.321Z,90.61
2019-02-14T04:26:43.535Z,90.70
2019-02-14T04:31:47.034Z,90.47
2019-02-14T04:36:49.967Z,90.60
2019-02-14T04:41:53.884Z,90.80
2019-02-14T04:46:56.691Z,91.63
2019-02-14T04:51:59.898Z,91.83
2019-02-14T04:57:03.132Z,91.65
2019-02-14T05:02:06.604Z,91.35
2019-02-14T05:07:09.539Z,91.73
2019-02-14T05:12:13.030Z,92.92
2019-02-14T05:17:16.266Z,92.88
2019-02-14T05:22:19.155Z,91.93
2019-02-14T05:27:22.376Z,90.98
2019-02-14T05:32:28.094Z,90.58
2019-02-14T05:37:31.529Z,90.56
2019-02-14T05:42:34.762Z,91.15
2019-02-14T05:47:38.308Z,91.09
2019-02-14T05:52:41.272Z,90.73
2019-02-14T05:57:44.460Z,91.58
2019-02-14T06:02:46.985Z,91.18
2019-02-14T06:07:50.241Z,91.24
2019-02-14T06:12:52.789Z,91.72
2019-02-14T06:17:55.672Z,90.65
2019-02-14T06:22:58.791Z,93.47
2019-02-14T06:28:01.817Z,91.93
2019-02-14T06:33:04.707Z,91.96
2019-02-14T06:38:07.588Z,92.06
2019-02-14T06:43:10.622Z,92.90
2019-02-14T06:48:13.806Z,93.21
2019-02-14T06:53:17.334Z,92.90
2019-02-14T06:58:20.841Z,92.24
2019-02-14T07:03:24.023Z,93.97
2019-02-14T07:08:27.157Z,94.33
2019-02-14T07:13:30.786Z,94.61
2019-02-14T07:18:34.308Z,94.05
2019-02-14T07:23:36.920Z,93.83
2019-02-14T07:28:41.573Z,93.47
2019-02-14T07:33:44.592Z,93.65
2019-02-14T07:38:47.874Z,92.87
2019-02-14T07:43:51.188Z,93.61
2019-02-14T07:48:54.664Z,94.00
2019-02-14T07:53:57.586Z,94.42
2019-02-14T07:59:00.833Z,94.48
2019-02-14T08:04:04.341Z,94.48
2019-02-14T08:09:06.877Z,94.92
2019-02-14T08:14:10.067Z,95.00
2019-02-14T08:19:13.041Z,95.80
2019-02-14T08:24:16.624Z,95.32
2019-02-14T08:29:19.783Z,95.29
2019-02-14T08:34:22.663Z,95.37
2019-02-14T08:39:26.184Z,94.95
2019-02-14T08:44:29.101Z,96.16
2019-02-14T08:49:31.614Z,96.45
2019-02-14T08:54:35.296Z,95.82
2019-02-14T08:59:38.525Z,94.35
2019-02-14T09:04:41.325Z,94.62
2019-02-14T09:09:44.496Z,94.37
2019-02-14T09:14:47.760Z,94.58
2019-02-14T09:19:50.939Z,94.64
2019-02-14T09:24:53.440Z,94.62
2019-02-14T09:29:57.572Z,94.22
2019-02-14T09:35:00.744Z,95.49
2019-02-14T09:40:04.317Z,95.85
2019-02-14T09:45:08.869Z,95.26
2019-02-14T09:50:12.583Z,94.71
2019-02-14T09:55:16.215Z,93.87
2019-02-14T10:00:19.506Z,92.38
2019-02-14T10:05:23.052Z,92.28
2019-02-14T10:10:26.558Z,92.37
2019-02-14T10:15:30.019Z,92.35
2019-02-14T10:20:33.240Z,92.61
2019-02-14T10:25:36.595Z,92.27
2019-02-14T10:30:40.305Z,91.46
2019-02-14T10:35:43.743Z,90.39
2019-02-14T10:40:47.209Z,91.05
2019-02-14T10:45:50.774Z,90.32
2019-02-14T10:50:54.049Z,89.49
2019-02-14T10:55:57.544Z,89.12
2019-02-14T11:01:00.746Z,88.64
2019-02-14T11:06:04.258Z,87.32
2019-02-14T11:11:07.979Z,86.32
2019-02-14T11:16:11.561Z,83.81
2019-02-14T11:21:14.452Z,81.70
2019-02-14T11:26:17.998Z,81.04
2019-02-14T11:31:21.297Z,80.49
2019-02-14T11:36:24.934Z,79.73
2019-02-14T11:41:28.176Z,77.67
2019-02-14T11:46:31.423Z,76.96
2019-02-14T11:51:34.929Z,76.26
2019-02-14T11:56:38.556Z,76.14
2019-02-14T12:01:41.852Z,76.09
2019-02-14T12:06:46.597Z,74.71
2019-02-14T12:11:50.352Z,74.64
2019-02-14T12:16:53.629Z,72.27
2019-02-14T12:21:56.149Z,70.95
2019-02-14T12:26:59.670Z,67.71
2019-02-14T12:32:02.925Z,67.88
2019-02-14T12:37:06.169Z,67.18
2019-02-14T12:42:09.135Z,66.66
2019-02-14T12:47:11.985Z,66.69
2019-02-14T12:52:14.884Z,66.79
2019-02-14T12:57:18.300Z,64.29
2019-02-14T13:02:20.558Z,66.00
2019-02-14T13:07:23.785Z,64.23
2019-02-14T13:12:27.002Z,65.17
2019-02-14T13:17:30.426Z,63.69
2019-02-14T13:22:33.690Z,61.59
2019-02-14T13:27:37.256Z,65.27
2019-02-14T13:32:40.677Z,59.28
2019-02-14T13:37:43.974Z,55.75
2019-02-14T13:42:47.083Z,56.11
2019-02-14T13:47:50.352Z,57.18
2019-02-14T13:52:53.423Z,55.94
2019-02-14T13:57:56.667Z,53.94
2019-02-14T14:02:59.741Z,55.92
2019-02-14T14:08:02.630Z,57.97
2019-02-14T14:13:05.842Z,55.35
2019-02-14T14:18:08.648Z,55.45
2019-02-14T14:23:11.537Z,53.73
2019-02-14T14:28:14.676Z,54.40
2019-02-14T14:33:17.243Z,56.52
2019-02-14T14:38:20.561Z,58.63
2019-02-14T14:43:35.443Z,60.34
2019-02-14T14:48:40.504Z,61.90
2019-02-14T14:53:44.069Z,63.42
2019-02-14T14:58:47.366Z,63.19
2019-02-14T15:03:52.105Z,64.59
2019-02-14T15:08:55.388Z,62.86
2019-02-14T15:13:58.181Z,64.24
2019-02-14T15:19:01.786Z,63.69
2019-02-14T15:24:04.701Z,64.13
2019-02-14T15:29:08.059Z,66.11
2019-02-14T15:34:11.019Z,66.73
2019-02-14T15:39:16.741Z,68.35
2019-02-14T15:44:20.344Z,69.68
2019-02-14T15:49:25.378Z,71.14
2019-02-14T15:54:28.561Z,71.50
2019-02-14T15:59:32.208Z,72.47
2019-02-14T16:04:34.788Z,74.41
2019-02-14T16:09:38.885Z,75.32
2019-02-14T16:14:44.732Z,76.52
2019-02-14T16:19:47.744Z,77.10
2019-02-14T16:24:51.402Z,77.75
2019-02-14T16:29:54.983Z,79.18
2019-02-14T16:34:58.679Z,79.12
2019-02-14T16:40:02.299Z,79.29
2019-02-14T16:45:05.779Z,79.84
2019-02-14T16:50:08.803Z,79.87
2019-02-14T16:55:11.700Z,80.33
2019-02-14T17:00:15.309Z,80.79
2019-02-14T17:05:18.295Z,80.96
2019-02-14T17:10:21.539Z,81.00
2019-02-14T17:15:24.742Z,80.68
2019-02-14T17:20:27.988Z,80.80
2019-02-14T17:25:31.341Z,81.94
2019-02-14T17:30:34.285Z,82.31
2019-02-14T17:35:36.861Z,81.32
2019-02-14T17:40:46.026Z,81.71
2019-02-14T17:45:45.154Z,81.65
2019-02-14T17:50:48.219Z,81.82
2019-02-14T17:55:51.463Z,82.09
2019-02-14T18:00:55.116Z,82.22
2019-02-14T18:05:59.021Z,82.44
2019-02-14T18:11:01.893Z,82.52
2019-02-14T18:16:05.440Z,83.17
2019-02-14T18:21:08.280Z,84.04
2019-02-14T18:26:11.544Z,83.18
2019-02-14T18:31:15.188Z,83.29
2019-02-14T18:36:18.259Z,84.18
2019-02-14T18:41:20.848Z,84.09
2019-02-14T18:46:23.971Z,85.46
2019-02-14T18:51:27.763Z,84.87
2019-02-14T18:56:30.749Z,85.08
2019-02-14T19:01:34.603Z,84.97
2019-02-14T19:06:38.657Z,85.47
2019-02-14T19:11:41.970Z,84.70
2019-02-14T19:16:45.455Z,84.58
2019-02-14T19:21:49.288Z,85.03
2019-02-14T19:26:52.816Z,84.76
2019-02-14T19:31:56.336Z,84.53
2019-02-14T19:37:00.403Z,84.96
2019-02-14T19:42:04.999Z,85.62
2019-02-14T19:47:09.040Z,85.27
2019-02-14T19:52:14.840Z,85.43
2019-02-14T19:57:22.582Z,84.81
2019-02-14T20:02:28.940Z,84.59
2019-02-14T20:07:35.121Z,85.41
2019-02-14T20:12:39.933Z,85.02
2019-02-14T20:17:46.253Z,85.21
2019-02-14T20:22:49.959Z,83.53
2019-02-14T20:27:54.393Z,84.78
2019-02-14T20:33:04.757Z,84.93
2019-02-14T20:38:08.489Z,85.19
2019-02-14T20:43:15.003Z,85.70
2019-02-14T20:48:22.247Z,85.51
2019-02-14T20:53:27.587Z,85.28
2019-02-14T20:58:33.633Z,85.46
2019-02-14T21:03:40.442Z,85.78
2019-02-14T21:08:45.856Z,85.08
2019-02-14T21:13:50.227Z,85.76
2019-02-14T21:18:54.470Z,85.81
2019-02-14T21:23:59.228Z,85.99
2019-02-14T21:29:02.539Z,86.26
2019-02-14T21:34:06.670Z,85.86
2019-02-14T21:39:13.031Z,85.95
2019-02-14T21:44:16.691Z,85.16
2019-02-14T21:49:19.533Z,84.52
2019-02-14T21:54:21.894Z,84.97
2019-02-14T21:59:25.102Z,85.38
2019-02-14T22:04:28.657Z,85.62
2019-02-14T22:09:33.995Z,85.28
2019-02-14T22:14:37.643Z,86.58
2019-02-14T22:19:40.680Z,85.39
2019-02-14T22:24:43.745Z,84.89
2019-02-14T22:29:46.967Z,86.11
2019-02-14T22:34:50.168Z,86.28
2019-02-14T22:39:53.338Z,87.37
2019-02-14T22:44:56.355Z,88.67
2019-02-14T22:49:59.903Z,86.84
2019-02-14T22:55:03.014Z,86.35
2019-02-14T23:00:14.809Z,87.18
2019-02-14T23:05:18.228Z,87.58
2019-02-14T23:10:21.983Z,87.21
2019-02-14T23:15:25.678Z,87.01
2019-02-14T23:20:29.107Z,86.91
2019-02-14T23:25:32.106Z,86.89
2019-02-14T23:30:35.558Z,87.28
2019-02-14T23:35:38.227Z,86.90
2019-02-14T23:40:41.164Z,86.38
2019-02-14T23:45:44.493Z,86.04
2019-02-14T23:50:48.038Z,85.56
2019-02-14T23:55:51.270Z,85.69
